Time;durP1;ratioP1;P1;durP2;ratioP2;P2;SDS_P1;SDS_P2;PMS_P1;PMS_P2;Temp;Humidity;BMP_temperature;BMP_pressure;BME280_temperature;BME280_humidity;BME280_pressure;Samples;Min_cycle;Max_cycle;Signal;HPM_P1;HPM_P2
2023/01/12 00:01:07;;;;;;;21.30;4.90;;;8.50;99.90;;;;;;5045750;28;20488;-62
2023/01/12 00:03:36;;;;;;;36.23;7.77;;;;;;;;;;5050133;28;20901;-62
2023/01/12 00:06:06;;;;;;;41.57;11.20;;;;;;;;;;5046117;28;20891;-62
2023/01/12 00:08:33;;;;;;;37.17;8.83;;;8.50;99.90;;;;;;5043586;28;20475;-61
2023/01/12 00:11:00;;;;;;;27.17;6.17;;;;;;;;;;5043554;28;20496;-62
2023/01/12 00:13:28;;;;;;;32.97;6.60;;;;;;;;;;5084244;28;20479;-62
2023/01/12 00:18:42;;;;;;;23.60;6.40;;;8.60;99.90;;;;;;5039506;28;20568;-61
2023/01/12 00:21:09;;;;;;;29.73;7.80;;;8.60;99.90;;;;;;5071922;28;20537;-61
2023/01/12 00:23:36;;;;;;;29.77;7.00;;;8.60;99.90;;;;;;5050156;28;20484;-62
2023/01/12 00:26:04;;;;;;;37.63;9.30;;;8.60;99.90;;;;;;5049152;28;20743;-62
2023/01/12 00:28:30;;;;;;;25.40;7.43;;;8.60;99.90;;;;;;5051797;28;21006;-62
2023/01/12 00:31:01;;;;;;;27.47;6.20;;;8.60;99.90;;;;;;5053548;28;20477;-61
2023/01/12 00:33:28;;;;;;;23.93;6.60;;;8.70;99.90;;;;;;5069969;28;20829;-61
2023/01/12 00:35:55;;;;;;;21.27;5.83;;;;;;;;;;5050869;28;20976;-61
2023/01/12 00:38:22;;;;;;;38.43;10.20;;;8.60;99.90;;;;;;5046722;28;20495;-62
2023/01/12 00:40:48;;;;;;;28.83;6.70;;;8.70;99.90;;;;;;5051700;28;20487;-61
2023/01/12 00:46:08;;;;;;;34.23;9.67;;;8.60;99.90;;;;;;5011348;28;20477;-61
2023/01/12 00:48:35;;;;;;;30.37;7.07;;;8.60;99.90;;;;;;5062354;28;20663;-61
2023/01/12 00:51:03;;;;;;;29.47;6.83;;;8.70;99.90;;;;;;5060788;28;20529;-61
2023/01/12 00:53:30;;;;;;;28.97;7.50;;;8.60;99.90;;;;;;5044042;28;20704;-62
2023/01/12 00:56:01;;;;;;;21.77;5.50;;;8.70;99.90;;;;;;5078315;28;20475;-62
2023/01/12 00:58:28;;;;;;;35.93;9.27;;;8.60;99.90;;;;;;5059719;28;20553;-62
2023/01/12 01:00:55;;;;;;;22.17;5.57;;;8.70;99.90;;;;;;5068303;28;20489;-61
2023/01/12 01:03:23;;;;;;;35.30;8.47;;;8.80;99.90;;;;;;5074978;28;21513;-61
2023/01/12 01:05:50;;;;;;;22.37;5.67;;;8.70;99.90;;;;;;5044209;28;20514;-61
2023/01/12 01:08:17;;;;;;;48.00;14.47;;;;;;;;;;5055804;28;20495;-62
2023/01/12 01:10:44;;;;;;;31.43;6.63;;;8.70;99.90;;;;;;5055283;28;20473;-62
2023/01/12 01:13:11;;;;;;;30.33;8.67;;;8.60;99.90;;;;;;5058235;28;20492;-61
2023/01/12 01:15:38;;;;;;;20.47;7.07;;;;;;;;;;5039583;28;20566;-62
2023/01/12 01:18:04;;;;;;;34.40;7.37;;;8.70;99.90;;;;;;5078837;28;20476;-61
2023/01/12 01:20:35;;;;;;;37.33;8.43;;;8.60;99.90;;;;;;5055038;28;20476;-61
2023/01/12 01:23:02;;;;;;;33.73;7.33;;;;;;;;;;5055314;28;20584;-62
2023/01/12 01:25:29;;;;;;;27.63;6.93;;;8.70;99.90;;;;;;5080392;28;20486;-62
2023/01/12 01:27:56;;;;;;;24.07;6.77;;;8.70;99.90;;;;;;5068259;27;20477;-61
2023/01/12 01:30:23;;;;;;;36.53;9.77;;;;;;;;;;5080260;28;20994;-61
2023/01/12 01:32:49;;;;;;;31.87;5.97;;;8.80;99.90;;;;;;5052076;28;20482;-62
2023/01/12 01:35:17;;;;;;;32.43;11.87;;;;;;;;;;5059004;28;20474;-61
2023/01/12 01:37:45;;;;;;;57.13;8.60;;;8.70;99.90;;;;;;5076938;27;20512;-61
2023/01/12 01:40:12;;;;;;;38.60;11.00;;;8.70;99.90;;;;;;5072765;27;20492;-61
2023/01/12 01:42:40;;;;;;;26.53;6.90;;;8.60;99.90;;;;;;5069526;28;20483;-61
2023/01/12 01:45:11;;;;;;;37.77;8.50;;;;;;;;;;5055177;28;20803;-61
2023/01/12 01:47:41;;;;;;;32.03;7.93;;;;;;;;;;5055506;28;20475;-61
2023/01/12 01:50:14;;;;;;;33.63;7.83;;;;;;;;;;5039469;28;20983;-61
2023/01/12 01:52:43;;;;;;;30.30;6.03;;;8.70;99.90;;;;;;5039531;28;20494;-61
2023/01/12 01:55:16;;;;;;;24.43;6.80;;;8.70;99.90;;;;;;5083493;27;20925;-61
2023/01/12 01:57:52;;;;;;;32.67;8.37;;;8.70;99.90;;;;;;5064936;28;20493;-60
2023/01/12 02:00:19;;;;;;;45.47;11.40;;;;;;;;;;5065203;27;20473;-61
2023/01/12 02:02:48;;;;;;;26.13;7.60;;;8.60;99.90;;;;;;5066513;27;20486;-61
2023/01/12 02:05:18;;;;;;;48.97;10.33;;;8.50;99.90;;;;;;5054767;28;20502;-61
2023/01/12 02:07:46;;;;;;;32.40;6.83;;;8.60;99.90;;;;;;5057357;28;20474;-61
2023/01/12 02:10:14;;;;;;;31.13;9.80;;;8.60;99.90;;;;;;5075813;28;21024;-61
2023/01/12 02:18:25;;;;;;;48.13;12.43;;;8.50;99.90;;;;;;5031458;28;20518;-61
2023/01/12 02:21:34;;;;;;;30.07;6.17;;;8.50;99.90;;;;;;5079404;28;20477;-61
2023/01/12 02:24:35;;;;;;;24.53;6.07;;;8.50;99.90;;;;;;5008584;28;20532;-60
2023/01/12 02:27:33;;;;;;;42.63;9.80;;;8.50;99.90;;;;;;5041771;28;20520;-61
2023/01/12 02:30:36;;;;;;;33.90;6.53;;;8.50;99.90;;;;;;5051874;28;21229;-61
2023/01/12 02:33:23;;;;;;;36.10;7.90;;;8.40;99.90;;;;;;5071563;28;20472;-62
2023/01/12 02:35:57;;;;;;;31.60;7.60;;;8.60;99.90;;;;;;5048258;28;20482;-61
2023/01/12 02:38:33;;;;;;;46.07;10.13;;;9.70;99.90;;;;;;5044014;28;20506;-61
2023/01/12 02:41:07;;;;;;;44.43;9.40;;;8.60;99.90;;;;;;5049178;28;20486;-61
2023/01/12 02:43:35;;;;;;;59.07;9.03;;;8.70;99.90;;;;;;5055497;28;20480;-62
2023/01/12 02:46:11;;;;;;;44.10;10.30;;;8.70;99.90;;;;;;5064584;28;20739;-61
2023/01/12 02:48:42;;;;;;;39.20;8.10;;;;;;;;;;5059230;28;20491;-61
2023/01/12 02:51:14;;;;;;;36.07;7.20;;;8.80;99.90;;;;;;5053917;28;20493;-61
2023/01/12 02:53:43;;;;;;;23.17;6.50;;;;;;;;;;5057326;28;20482;-61
2023/01/12 02:56:11;;;;;;;35.17;9.47;;;;;;;;;;5066990;28;20482;-61
2023/01/12 02:58:42;;;;;;;33.33;8.23;;;8.80;99.90;;;;;;5063942;28;20971;-61
2023/01/12 03:01:11;;;;;;;49.47;10.57;;;8.80;99.90;;;;;;5051540;28;20510;-61
2023/01/12 03:03:39;;;;;;;37.30;7.67;;;8.70;99.90;;;;;;5055920;28;20486;-62
2023/01/12 03:06:08;;;;;;;39.00;8.37;;;;;;;;;;5076526;28;20478;-62
2023/01/12 03:08:39;;;;;;;24.83;6.00;;;8.70;99.90;;;;;;5058693;28;20542;-62
2023/01/12 03:11:10;;;;;;;40.53;7.70;;;;;;;;;;5054580;28;20510;-62
2023/01/12 03:13:42;;;;;;;20.60;5.60;;;8.60;99.90;;;;;;5057190;28;20485;-61
2023/01/12 03:16:11;;;;;;;34.03;10.80;;;8.70;99.90;;;;;;5063174;28;20893;-61
2023/01/12 03:18:43;;;;;;;53.50;10.80;;;8.50;99.90;;;;;;5063332;28;20467;-62
2023/01/12 03:21:12;;;;;;;29.47;6.67;;;8.60;99.90;;;;;;5039193;28;20479;-62
2023/01/12 03:23:46;;;;;;;32.33;6.93;;;8.60;99.90;;;;;;5051991;28;21090;-62
2023/01/12 03:26:17;;;;;;;42.77;10.57;;;8.50;99.90;;;;;;5057023;28;20483;-61
2023/01/12 03:28:49;;;;;;;39.83;8.40;;;8.60;99.90;;;;;;5047631;28;20491;-63
2023/01/12 03:31:15;;;;;;;48.50;11.53;;;8.60;99.90;;;;;;5078896;28;20463;-61
2023/01/12 03:33:45;;;;;;;40.23;7.83;;;8.60;99.90;;;;;;5061060;28;20486;-62
2023/01/12 03:36:16;;;;;;;67.60;13.20;;;;;;;;;;5053468;28;20487;-61
2023/01/12 03:38:51;;;;;;;38.50;8.03;;;8.60;99.90;;;;;;5058007;28;20477;-61
2023/01/12 03:41:22;;;;;;;45.60;9.60;;;;;;;;;;5060009;28;20500;-61
2023/01/12 03:43:52;;;;;;;39.57;8.80;;;8.60;99.90;;;;;;5073018;28;20884;-61
2023/01/12 03:46:24;;;;;;;56.57;11.43;;;8.70;99.90;;;;;;5054619;28;20977;-61
2023/01/12 03:48:57;;;;;;;28.53;6.80;;;8.80;99.90;;;;;;5070281;28;20481;-61
2023/01/12 03:51:27;;;;;;;34.87;9.23;;;8.50;99.90;;;;;;5048167;28;20477;-61
2023/01/12 03:53:56;;;;;;;39.23;8.47;;;8.70;99.90;;;;;;5072263;28;20478;-60
2023/01/12 03:56:26;;;;;;;72.23;10.07;;;8.70;99.90;;;;;;5063619;28;20918;-61
2023/01/12 03:58:54;;;;;;;25.13;4.60;;;;;;;;;;5046332;28;20469;-61
2023/01/12 04:01:21;;;;;;;57.63;13.03;;;;;;;;;;5070158;28;20489;-61
2023/01/12 04:03:47;;;;;;;45.10;6.60;;;8.80;99.90;;;;;;5054224;28;20504;-60
2023/01/12 04:06:16;;;;;;;44.67;12.73;;;;;;;;;;5062613;28;20480;-61
2023/01/12 04:08:43;;;;;;;37.07;7.20;;;8.60;99.90;;;;;;5082241;28;20560;-60
2023/01/12 04:13:50;;;;;;;29.97;5.57;;;8.70;99.90;;;;;;5057869;28;20549;-61
2023/01/12 04:16:17;;;;;;;37.40;10.63;;;;;;;;;;5056328;28;21041;-61
2023/01/12 04:18:44;;;;;;;33.73;8.47;;;8.50;99.90;;;;;;5030340;28;20495;-60
2023/01/12 04:23:53;;;;;;;21.03;5.60;;;8.60;99.90;;;;;;5070119;28;20815;-61
2023/01/12 04:26:21;;;;;;;40.87;13.10;;;;;;;;;;5052872;28;20485;-61
2023/01/12 04:28:48;;;;;;;25.33;7.60;;;8.50;99.90;;;;;;5063869;28;20578;-61
2023/01/12 04:31:15;;;;;;;38.70;9.60;;;;;;;;;;5070801;28;20807;-61
2023/01/12 04:33:42;;;;;;;27.70;6.87;;;8.50;99.90;;;;;;5068483;28;20580;-61
2023/01/12 04:36:11;;;;;;;50.97;13.77;;;8.40;99.90;;;;;;5059740;28;20744;-61
2023/01/12 04:38:38;;;;;;;23.17;6.70;;;8.50;99.90;;;;;;5069264;28;20513;-61
2023/01/12 04:41:06;;;;;;;40.47;8.17;;;8.50;99.90;;;;;;5059515;28;20486;-61
2023/01/12 04:43:33;;;;;;;32.47;6.97;;;8.60;99.90;;;;;;5052892;28;20483;-62
2023/01/12 04:46:05;;;;;;;43.13;9.07;;;8.60;99.90;;;;;;5051357;28;20708;-62
2023/01/12 04:48:32;;;;;;;28.00;7.90;;;;;;;;;;5070523;28;20499;-61
2023/01/12 04:51:00;;;;;;;37.90;6.40;;;;;;;;;;5052488;28;20506;-61
2023/01/12 04:53:27;;;;;;;42.50;9.67;;;;;;;;;;5038735;28;20558;-61
2023/01/12 04:55:54;;;;;;;22.13;5.60;;;8.60;99.90;;;;;;5054638;28;20482;-60
2023/01/12 04:58:22;;;;;;;57.00;11.23;;;8.70;99.90;;;;;;5052906;28;20502;-61
2023/01/12 05:00:49;;;;;;;24.73;6.27;;;8.70;99.90;;;;;;5055954;28;20472;-61
2023/01/12 05:03:16;;;;;;;33.73;11.13;;;8.80;99.90;;;;;;5058279;28;20528;-62
2023/01/12 05:05:43;;;;;;;26.30;5.50;;;8.60;99.90;;;;;;5059081;28;20487;-61
2023/01/12 05:10:56;;;;;;;32.60;7.27;;;8.60;99.90;;;;;;5066617;28;20525;-61
2023/01/12 05:13:25;;;;;;;34.30;9.00;;;8.70;99.90;;;;;;5086662;28;20485;-61
2023/01/12 05:15:52;;;;;;;22.73;7.10;;;8.60;99.90;;;;;;5060192;28;20484;-61
2023/01/12 05:18:19;;;;;;;48.67;9.60;;;;;;;;;;5077868;28;20492;-62
2023/01/12 05:20:46;;;;;;;42.47;6.87;;;;;;;;;;5074670;28;20504;-62
2023/01/12 05:23:13;;;;;;;29.43;8.77;;;8.60;99.90;;;;;;5066042;28;20481;-62
2023/01/12 05:25:40;;;;;;;25.97;6.00;;;8.60;99.90;;;;;;5062869;28;20497;-62
2023/01/12 05:28:07;;;;;;;30.80;8.13;;;8.60;99.90;;;;;;5063010;28;20517;-62
2023/01/12 05:30:35;;;;;;;18.77;5.37;;;8.80;99.90;;;;;;5070693;28;20481;-61
2023/01/12 05:33:02;;;;;;;10.40;4.03;;;8.70;99.90;;;;;;5062014;28;21157;-61
2023/01/12 05:35:29;;;;;;;43.57;8.73;;;;;;;;;;5081485;28;20486;-62
2023/01/12 05:37:56;;;;;;;16.10;3.20;;;8.70;99.90;;;;;;5054131;28;21188;-62
2023/01/12 05:40:22;;;;;;;37.83;9.47;;;8.50;99.90;;;;;;5071072;28;21004;-61
2023/01/12 05:45:36;;;;;;;18.50;5.23;;;8.50;99.90;;;;;;5062451;28;21046;-61
2023/01/12 05:48:03;;;;;;;27.40;6.50;;;8.50;99.90;;;;;;5061409;28;20504;-61
2023/01/12 05:50:30;;;;;;;29.90;7.60;;;;;;;;;;5080897;28;20958;-61
2023/01/12 05:52:57;;;;;;;31.37;5.60;;;;;;;;;;5047641;28;20582;-61
2023/01/12 05:55:24;;;;;;;31.23;9.53;;;8.60;99.90;;;;;;5075014;28;20492;-61
2023/01/12 05:57:50;;;;;;;27.10;6.93;;;8.70;99.90;;;;;;5047711;28;20494;-61
2023/01/12 06:00:18;;;;;;;32.20;9.00;;;8.80;99.90;;;;;;5055415;28;21014;-61
2023/01/12 06:02:46;;;;;;;35.30;6.50;;;8.70;99.90;;;;;;5055628;28;20487;-61
2023/01/12 06:05:13;;;;;;;34.57;9.93;;;8.80;99.90;;;;;;5058652;28;20845;-61
2023/01/12 06:07:41;;;;;;;24.87;6.20;;;;;;;;;;5057082;28;20905;-61
2023/01/12 06:10:09;;;;;;;28.23;5.70;;;;;;;;;;5058174;28;20482;-61
2023/01/12 06:15:20;;;;;;;33.13;8.60;;;8.80;99.90;;;;;;5063533;28;20522;-61
2023/01/12 06:17:48;;;;;;;22.07;7.00;;;;;;;;;;5053770;28;20621;-61
2023/01/12 06:20:16;;;;;;;42.80;9.90;;;8.80;99.90;;;;;;5060952;28;20481;-61
2023/01/12 06:22:43;;;;;;;39.23;10.30;;;;;;;;;;5077624;28;20817;-61
2023/01/12 06:25:10;;;;;;;36.70;7.50;;;8.80;99.90;;;;;;5066693;28;20477;-61
2023/01/12 06:27:37;;;;;;;21.03;5.80;;;8.80;99.90;;;;;;5068097;28;20489;-61
2023/01/12 06:30:05;;;;;;;33.67;6.63;;;8.80;99.90;;;;;;5068899;28;20485;-61
2023/01/12 06:32:32;;;;;;;31.87;7.73;;;;;;;;;;5072065;28;21421;-61
2023/01/12 06:35:02;;;;;;;38.97;6.27;;;8.70;99.90;;;;;;5076953;28;20474;-62
2023/01/12 06:37:29;;;;;;;26.27;5.80;;;;;;;;;;5064173;28;20491;-61
2023/01/12 06:39:56;;;;;;;26.60;4.90;;;8.80;99.90;;;;;;5079295;28;20531;-61
2023/01/12 06:42:30;;;;;;;40.03;9.00;;;8.70;99.90;;;;;;5080198;28;20998;-62
2023/01/12 06:44:57;;;;;;;30.23;5.40;;;;;;;;;;5053565;28;20476;-62
2023/01/12 06:47:24;;;;;;;29.87;9.63;;;8.60;99.90;;;;;;5058728;28;20477;-62
2023/01/12 06:49:51;;;;;;;33.70;6.13;;;8.70;99.90;;;;;;5066159;28;20564;-62
2023/01/12 06:52:21;;;;;;;32.80;8.00;;;8.80;99.90;;;;;;5050664;28;20467;-62
2023/01/12 06:54:48;;;;;;;27.67;6.77;;;8.70;99.90;;;;;;5055226;28;20491;-62
2023/01/12 06:57:15;;;;;;;35.23;9.57;;;8.50;99.90;;;;;;5049545;28;20486;-62
2023/01/12 06:59:42;;;;;;;29.67;6.97;;;8.60;99.90;;;;;;5052605;28;21022;-62
2023/01/12 07:02:11;;;;;;;35.27;7.30;;;;;;;;;;5053371;28;20570;-61
2023/01/12 07:04:38;;;;;;;27.13;7.30;;;8.50;99.90;;;;;;5075423;28;20561;-62
2023/01/12 07:07:05;;;;;;;29.70;7.07;;;8.40;99.90;;;;;;5068062;28;20904;-62
2023/01/12 07:09:33;;;;;;;19.90;5.37;;;8.40;99.90;;;;;;5068045;28;20477;-61
2023/01/12 07:12:00;;;;;;;21.60;5.47;;;;;;;;;;5060723;28;20795;-62
2023/01/12 07:14:27;;;;;;;34.13;9.27;;;;;;;;;;5065315;28;20484;-61
2023/01/12 07:16:54;;;;;;;22.97;6.27;;;8.40;99.90;;;;;;5072545;28;20921;-61
2023/01/12 07:19:21;;;;;;;32.60;9.40;;;8.40;99.90;;;;;;5064335;28;20552;-62
2023/01/12 07:21:49;;;;;;;30.97;6.07;;;8.40;99.90;;;;;;5073918;28;21055;-62
2023/01/12 07:24:15;;;;;;;41.63;11.57;;;8.40;99.90;;;;;;5072617;28;21537;-62
2023/01/12 07:26:44;;;;;;;26.20;6.37;;;8.20;99.90;;;;;;5043364;28;20709;-61
2023/01/12 07:29:11;;;;;;;28.60;7.67;;;8.30;99.90;;;;;;5061818;28;20480;-61
2023/01/12 07:31:38;;;;;;;30.80;5.40;;;8.40;99.90;;;;;;5085964;28;20483;-61
2023/01/12 07:34:05;;;;;;;23.60;8.10;;;;;;;;;;5072156;28;20801;-61
2023/01/12 07:36:32;;;;;;;21.60;5.03;;;8.30;99.90;;;;;;5055563;28;20512;-61
2023/01/12 07:38:59;;;;;;;18.67;4.60;;;8.40;99.90;;;;;;5074719;28;20516;-61
2023/01/12 07:44:12;;;;;;;27.40;6.37;;;;;;;;;;5080996;28;20533;-61
2023/01/12 07:46:38;;;;;;;21.47;5.93;;;8.50;99.90;;;;;;5026447;28;21037;-61
2023/01/12 07:49:05;;;;;;;25.67;6.53;;;8.40;99.90;;;;;;5060544;28;20490;-61
2023/01/12 07:51:32;;;;;;;29.30;6.27;;;;;;;;;;5060088;28;20483;-61
2023/01/12 07:53:59;;;;;;;17.70;3.90;;;;;;;;;;5061826;28;20486;-61
2023/01/12 07:56:26;;;;;;;26.17;7.63;;;8.50;99.90;;;;;;5068878;28;20618;-61
2023/01/12 07:58:53;;;;;;;24.40;5.20;;;;;;;;;;5076522;28;20530;-61
2023/01/12 08:01:21;;;;;;;34.23;9.37;;;8.30;99.90;;;;;;5067211;28;20961;-61
2023/01/12 08:03:48;;;;;;;27.73;6.37;;;;;;;;;;5065546;28;20483;-61
2023/01/12 08:06:15;;;;;;;47.83;13.97;;;8.60;99.90;;;;;;5042466;28;20502;-61
2023/01/12 08:08:41;;;;;;;31.43;7.47;;;8.50;99.90;;;;;;5085780;28;20491;-61
2023/01/12 08:11:10;;;;;;;33.57;7.07;;;8.60;99.90;;;;;;5067293;28;20836;-61
2023/01/12 08:13:37;;;;;;;36.30;6.03;;;;;;;;;;5058623;28;20915;-61
2023/01/12 08:16:08;;;;;;;34.50;8.70;;;8.80;99.90;;;;;;5073330;28;20665;-61
2023/01/12 08:18:42;;;;;;;34.63;6.27;;;8.80;99.90;;;;;;5051046;28;20491;-62
2023/01/12 08:21:14;;;;;;;37.20;6.83;;;8.90;99.90;;;;;;5075951;28;20557;-61
2023/01/12 08:23:44;;;;;;;20.20;5.63;;;8.90;99.90;;;;;;5050697;28;20480;-61
2023/01/12 08:26:15;;;;;;;38.40;12.30;;;8.90;99.90;;;;;;5048866;28;20487;-61
2023/01/12 08:28:44;;;;;;;25.57;7.63;;;;;;;;;;5061748;28;20485;-62
2023/01/12 08:31:13;;;;;;;35.17;7.97;;;;;;;;;;5070952;28;20976;-61
2023/01/12 08:33:42;;;;;;;17.67;4.00;;;9.00;99.90;;;;;;5044697;28;20467;-62
2023/01/12 08:36:11;;;;;;;37.30;10.67;;;8.90;99.90;;;;;;5049564;28;20492;-62
2023/01/12 08:38:38;;;;;;;27.80;8.03;;;8.90;99.90;;;;;;5068113;28;20556;-61
2023/01/12 08:44:06;;;;;;;35.50;6.77;;;9.00;99.90;;;;;;5054440;28;20579;-62
2023/01/12 08:46:33;;;;;;;24.73;6.80;;;;;;;;;;5041028;28;20478;-61
2023/01/12 08:49:02;;;;;;;23.20;5.37;;;;;;;;;;5073816;28;20473;-62
2023/01/12 08:51:29;;;;;;;21.40;5.13;;;9.00;99.90;;;;;;5047951;28;20483;-62
2023/01/12 08:53:56;;;;;;;23.53;6.50;;;9.00;99.90;;;;;;5050711;28;20899;-61
2023/01/12 08:56:22;;;;;;;31.60;11.60;;;8.90;99.90;;;;;;5063000;28;20652;-61
2023/01/12 08:58:50;;;;;;;31.03;6.67;;;;;;;;;;5067993;28;20510;-62
2023/01/12 09:01:18;;;;;;;39.80;8.47;;;9.00;99.90;;;;;;5058807;28;20490;-62
2023/01/12 09:03:46;;;;;;;26.70;5.93;;;;;;;;;;5053923;28;20554;-62
2023/01/12 09:06:16;;;;;;;33.87;9.87;;;9.00;99.90;;;;;;5055009;28;20505;-62
2023/01/12 09:08:44;;;;;;;26.43;7.33;;;;;;;;;;5060258;28;20988;-61
2023/01/12 09:11:12;;;;;;;25.50;6.77;;;9.20;99.90;;;;;;5062879;28;20957;-62
2023/01/12 09:13:40;;;;;;;26.07;4.93;;;9.10;99.90;;;;;;5081453;28;20480;-62
2023/01/12 09:16:08;;;;;;;35.00;9.80;;;;;;;;;;5053204;28;20476;-61
2023/01/12 09:18:36;;;;;;;37.67;6.43;;;;;;;;;;5050892;28;20490;-61
2023/01/12 09:21:04;;;;;;;25.20;6.70;;;;;;;;;;5052102;28;20476;-61
2023/01/12 09:23:32;;;;;;;32.27;7.20;;;9.10;99.90;;;;;;5065024;28;20497;-62
2023/01/12 09:26:02;;;;;;;27.93;8.13;;;;;;;;;;5050317;28;20478;-61
2023/01/12 09:28:30;;;;;;;19.40;6.30;;;8.90;99.90;;;;;;5053821;28;20967;-62
2023/01/12 09:31:00;;;;;;;23.80;8.50;;;9.00;99.90;;;;;;5056438;28;21009;-62
2023/01/12 09:33:27;;;;;;;21.30;5.70;;;9.20;99.90;;;;;;5034741;28;20470;-61
2023/01/12 09:35:54;;;;;;;17.83;5.07;;;9.10;99.90;;;;;;5070346;28;20882;-61
2023/01/12 09:38:20;;;;;;;29.93;8.50;;;9.10;99.90;;;;;;5058128;28;20482;-61
2023/01/12 09:40:49;;;;;;;35.50;7.43;;;;;;;;;;5045191;28;20487;-62
2023/01/12 09:48:59;;;;;;;20.60;5.17;;;9.00;99.90;;;;;;5058863;28;20503;-61
2023/01/12 09:51:29;;;;;;;30.70;6.97;;;;;;;;;;5085425;28;21048;-62
2023/01/12 09:53:55;;;;;;;17.60;4.50;;;9.00;99.90;;;;;;5076005;28;20471;-61
2023/01/12 09:56:29;;;;;;;54.57;13.70;;;;;;;;;;5050333;28;20479;-61
2023/01/12 09:59:15;;;;;;;24.83;4.33;;;9.10;99.90;;;;;;5042573;28;20490;-61
2023/01/12 10:01:41;;;;;;;26.10;5.33;;;8.90;99.90;;;;;;5074202;28;21129;-61
2023/01/12 10:04:09;;;;;;;25.63;6.23;;;;;;;;;;5050628;28;20490;-62
2023/01/12 10:06:36;;;;;;;30.03;7.00;;;;;;;;;;5049556;28;20494;-61
2023/01/12 10:09:04;;;;;;;28.03;6.53;;;;;;;;;;5063844;28;21012;-61
2023/01/12 10:11:41;;;;;;;21.47;5.67;;;8.80;99.90;;;;;;5059231;28;20972;-61
2023/01/12 10:14:47;;;;;;;22.23;6.20;;;8.90;99.90;;;;;;5053164;28;20472;-61
2023/01/12 10:17:29;;;;;;;29.87;9.10;;;;;;;;;;5075339;28;20947;-61
2023/01/12 10:20:03;;;;;;;27.77;6.00;;;8.90;99.90;;;;;;5051730;28;20495;-61
2023/01/12 10:22:38;;;;;;;26.27;5.83;;;8.90;99.90;;;;;;5065232;28;20481;-61
2023/01/12 10:25:23;;;;;;;35.73;7.67;;;8.90;99.90;;;;;;5058961;28;20560;-61
2023/01/12 10:27:53;;;;;;;27.03;6.13;;;9.00;99.90;;;;;;5037741;28;20485;-61
2023/01/12 10:30:26;;;;;;;22.77;5.60;;;9.00;99.90;;;;;;5080087;28;20479;-62
2023/01/12 10:32:52;;;;;;;17.87;4.30;;;9.00;99.90;;;;;;5066360;28;20493;-61
2023/01/12 10:35:23;;;;;;;27.57;7.63;;;9.10;99.90;;;;;;5083431;28;20940;-61
2023/01/12 10:37:53;;;;;;;22.47;6.87;;;9.10;99.90;;;;;;5068422;28;20538;-61
2023/01/12 10:40:25;;;;;;;26.43;6.37;;;9.20;99.90;;;;;;5055869;28;20497;-61
2023/01/12 10:45:42;;;;;;;29.43;5.27;;;;;;;;;;5054159;28;20629;-61
2023/01/12 10:48:16;;;;;;;31.07;6.30;;;;;;;;;;5052401;28;21097;-61
2023/01/12 10:50:43;;;;;;;29.17;6.10;;;;;;;;;;5075584;28;20482;-61
2023/01/12 10:53:15;;;;;;;22.00;6.57;;;9.30;99.90;;;;;;5063786;28;20559;-62
2023/01/12 10:55:43;;;;;;;30.80;7.20;;;9.20;99.90;;;;;;5077109;28;21338;-61
2023/01/12 10:58:21;;;;;;;16.33;4.53;;;9.10;99.90;;;;;;5061988;28;20690;-62
2023/01/12 11:00:50;;;;;;;22.73;5.80;;;9.20;99.90;;;;;;5074321;28;21107;-61
2023/01/12 11:03:32;;;;;;;28.40;7.63;;;9.10;99.90;;;;;;5072226;28;20554;-61
2023/01/12 11:06:21;;;;;;;32.30;6.97;;;9.00;99.90;;;;;;5061152;28;20468;-61
2023/01/12 11:08:48;;;;;;;32.27;5.97;;;9.10;99.90;;;;;;5047079;28;20875;-61
2023/01/12 11:11:23;;;;;;;38.57;10.07;;;9.20;99.90;;;;;;5083273;28;20490;-62
2023/01/12 11:13:55;;;;;;;22.83;4.00;;;9.30;99.90;;;;;;5036171;28;20482;-61
2023/01/12 11:16:26;;;;;;;41.53;9.17;;;9.30;99.90;;;;;;5085038;28;20486;-62
2023/01/12 11:19:11;;;;;;;24.37;5.13;;;9.20;99.90;;;;;;5074551;28;20573;-62
2023/01/12 11:21:42;;;;;;;16.30;4.07;;;9.20;99.90;;;;;;5066198;28;20643;-62
2023/01/12 11:24:16;;;;;;;16.03;4.70;;;9.30;99.90;;;;;;5067835;28;20479;-62
2023/01/12 11:26:48;;;;;;;39.90;8.30;;;9.40;99.90;;;;;;5049957;28;20878;-62
2023/01/12 11:29:41;;;;;;;34.00;7.90;;;9.30;99.90;;;;;;5069133;28;20473;-62
2023/01/12 11:32:12;;;;;;;15.90;4.50;;;;;;;;;;5054335;28;21056;-62
2023/01/12 11:34:51;;;;;;;22.87;6.47;;;9.50;99.90;;;;;;5053652;28;20486;-62
2023/01/12 11:37:18;;;;;;;31.87;9.00;;;;;;;;;;5065964;28;20482;-62
2023/01/12 11:39:50;;;;;;;19.27;3.63;;;9.30;99.90;;;;;;5053876;28;20485;-62
2023/01/12 11:45:12;;;;;;;21.00;5.03;;;9.30;99.90;;;;;;5054594;28;20496;-62
2023/01/12 11:47:42;;;;;;;21.20;4.83;;;9.40;99.90;;;;;;5068370;28;21148;-62
2023/01/12 11:50:15;;;;;;;34.17;6.97;;;9.20;99.90;;;;;;5053870;28;20533;-62
2023/01/12 11:52:42;;;;;;;20.53;5.20;;;9.30;99.90;;;;;;5058109;28;20474;-62
2023/01/12 11:55:14;;;;;;;19.27;5.73;;;9.30;99.90;;;;;;5067497;28;20471;-62
2023/01/12 11:57:53;;;;;;;12.13;3.80;;;;;;;;;;5052775;28;20622;-61
2023/01/12 12:00:46;;;;;;;20.80;6.37;;;9.40;99.90;;;;;;5065175;28;20482;-61
2023/01/12 12:03:31;;;;;;;21.40;6.87;;;9.30;99.90;;;;;;5065638;28;20599;-62
2023/01/12 12:06:04;;;;;;;17.07;5.67;;;9.40;99.90;;;;;;5062611;28;20481;-62
2023/01/12 12:08:43;;;;;;;15.80;4.70;;;9.60;99.90;;;;;;5058201;28;20479;-62
2023/01/12 12:11:17;;;;;;;27.17;6.53;;;;;;;;;;5070645;28;20809;-62
2023/01/12 12:13:50;;;;;;;18.77;3.83;;;;;;;;;;5053463;28;20479;-62
2023/01/12 12:16:29;;;;;;;38.90;8.67;;;9.60;99.90;;;;;;5065820;28;20539;-62
2023/01/12 12:19:19;;;;;;;22.00;4.67;;;9.70;99.90;;;;;;5080584;28;20461;-62
2023/01/12 12:21:53;;;;;;;23.90;5.03;;;9.60;99.90;;;;;;5050507;28;20899;-62
2023/01/12 12:24:26;;;;;;;29.40;7.30;;;;;;;;;;5069856;28;20487;-61
2023/01/12 12:27:01;;;;;;;21.57;4.00;;;9.60;99.90;;;;;;5061968;28;20473;-61
2023/01/12 12:29:52;;;;;;;18.67;5.20;;;9.50;99.90;;;;;;5074982;28;20476;-62
2023/01/12 12:32:28;;;;;;;43.87;11.13;;;9.60;99.90;;;;;;5042532;28;21118;-62
2023/01/12 12:35:06;;;;;;;13.67;3.27;;;;;;;;;;5056942;28;20653;-61
2023/01/12 12:37:50;;;;;;;25.63;5.57;;;9.50;99.90;;;;;;5044418;28;20482;-61
2023/01/12 12:45:14;;;;;;;24.63;6.20;;;9.50;99.90;;;;;;5044367;28;20956;-61
2023/01/12 12:46:16;;;;;;;34.37;8.87;;;12.20;99.90;;;;;;5059805;28;20481;-61
2023/01/12 12:48:49;;;;;;;31.73;5.73;;;;;;;;;;5063699;28;20846;-61
2023/01/12 12:51:16;;;;;;;30.83;8.93;;;;;;;;;;5064830;28;20504;-62
2023/01/12 12:53:44;;;;;;;25.97;5.13;;;;;;;;;;5048846;28;20907;-61
2023/01/12 12:56:13;;;;;;;27.10;7.47;;;;;;;;;;5048301;28;21122;-62
2023/01/12 12:58:42;;;;;;;20.53;5.30;;;9.60;99.90;;;;;;5065331;28;20485;-62
2023/01/12 13:01:54;;;;;;;23.53;7.47;;;9.60;99.90;;;;;;5055414;28;20585;-62
2023/01/12 13:05:05;;;;;;;31.27;8.83;;;9.60;99.90;;;;;;5058165;28;20475;-62
2023/01/12 13:07:35;;;;;;;28.33;6.70;;;9.50;99.90;;;;;;5053196;28;20568;-62
2023/01/12 13:10:15;;;;;;;27.40;4.90;;;9.60;99.90;;;;;;5071445;28;20483;-62
2023/01/12 13:12:42;;;;;;;33.30;6.90;;;9.50;99.90;;;;;;5037232;28;20471;-62
2023/01/12 13:15:17;;;;;;;28.73;5.20;;;;;;;;;;5051552;28;20490;-62
2023/01/12 13:17:45;;;;;;;21.23;4.60;;;;;;;;;;5060009;28;20469;-62
2023/01/12 13:20:43;;;;;;;30.37;8.43;;;9.50;99.90;;;;;;5071683;28;20476;-63
2023/01/12 13:23:42;;;;;;;25.50;6.40;;;9.50;99.90;;;;;;5070171;28;20478;-62
2023/01/12 13:26:24;;;;;;;46.37;11.27;;;9.50;99.90;;;;;;5037881;28;20569;-62
2023/01/12 13:29:39;;;;;;;29.30;4.77;;;9.60;99.90;;;;;;5071252;28;20489;-62
2023/01/12 13:32:35;;;;;;;22.20;5.53;;;9.50;99.90;;;;;;5079642;28;20485;-62
2023/01/12 13:35:02;;;;;;;35.03;4.80;;;;;;;;;;5059214;28;20475;-62
2023/01/12 13:37:43;;;;;;;25.63;6.53;;;9.60;99.90;;;;;;5074414;28;21274;-62
2023/01/12 13:40:16;;;;;;;27.57;6.20;;;9.60;99.90;;;;;;5044197;28;20916;-62
2023/01/12 13:45:29;;;;;;;31.43;6.17;;;9.70;99.90;;;;;;5057157;28;20482;-62
2023/01/12 13:47:57;;;;;;;16.40;3.50;;;9.70;99.90;;;;;;5035143;28;20483;-62
2023/01/12 13:50:26;;;;;;;30.87;7.10;;;9.80;99.90;;;;;;5070968;28;20515;-62
2023/01/12 13:52:59;;;;;;;28.63;5.70;;;9.70;99.90;;;;;;5057676;28;20509;-62
2023/01/12 13:55:28;;;;;;;25.07;6.23;;;;;;;;;;5057035;28;20489;-62
2023/01/12 13:57:59;;;;;;;18.73;4.00;;;;;;;;;;5065566;28;21281;-62
2023/01/12 14:00:28;;;;;;;28.13;8.10;;;9.70;99.90;;;;;;5055355;28;21029;-62
2023/01/12 14:02:56;;;;;;;18.77;4.60;;;9.70;99.90;;;;;;5075827;28;20529;-61
2023/01/12 14:05:46;;;;;;;28.60;6.90;;;9.60;99.90;;;;;;5054874;28;20563;-62
2023/01/12 14:08:36;;;;;;;39.70;9.60;;;9.60;99.90;;;;;;5061209;28;20481;-62
2023/01/12 14:11:16;;;;;;;25.07;4.40;;;9.60;99.90;;;;;;5042562;28;20479;-62
2023/01/12 14:13:54;;;;;;;34.77;7.90;;;9.70;99.90;;;;;;5069645;28;20490;-62
2023/01/12 14:19:25;;;;;;;22.13;4.63;;;;;;;;;;5070846;28;20885;-62
2023/01/12 14:21:56;;;;;;;27.30;6.17;;;9.50;99.90;;;;;;5045029;28;20544;-62
2023/01/12 14:24:24;;;;;;;32.60;10.23;;;9.60;99.90;;;;;;5043863;28;20972;-62